sensor_id;sensor_type;location;lat;lon;timestamp;temperature;humidity
7016;DHT22;3548;48.402;9.990;2022-07-04T00:00:38;21.20;98.40
7016;DHT22;3548;48.402;9.990;2022-07-04T00:03:04;21.30;98.70
7016;DHT22;3548;48.402;9.990;2022-07-04T00:05:30;21.30;98.80
7016;DHT22;3548;48.402;9.990;2022-07-04T00:07:56;21.30;98.80
7016;DHT22;3548;48.402;9.990;2022-07-04T00:10:22;21.20;98.80
7016;DHT22;3548;48.402;9.990;2022-07-04T00:12:48;21.30;98.70
7016;DHT22;3548;48.402;9.990;2022-07-04T00:15:13;21.30;98.40
7016;DHT22;3548;48.402;9.990;2022-07-04T00:17:39;21.30;98.30
7016;DHT22;3548;48.402;9.990;2022-07-04T00:20:06;21.30;98.10
7016;DHT22;3548;48.402;9.990;2022-07-04T00:22:33;21.30;98.00
7016;DHT22;3548;48.402;9.990;2022-07-04T00:24:58;21.30;97.70
7016;DHT22;3548;48.402;9.990;2022-07-04T00:27:25;21.40;97.20
7016;DHT22;3548;48.402;9.990;2022-07-04T00:29:51;21.30;96.70
7016;DHT22;3548;48.402;9.990;2022-07-04T00:32:17;21.30;96.50
7016;DHT22;3548;48.402;9.990;2022-07-04T00:34:43;21.20;96.50
7016;DHT22;3548;48.402;9.990;2022-07-04T00:37:09;21.20;96.80
7016;DHT22;3548;48.402;9.990;2022-07-04T00:39:35;21.10;96.70
7016;DHT22;3548;48.402;9.990;2022-07-04T00:42:00;21.10;96.80
7016;DHT22;3548;48.402;9.990;2022-07-04T00:44:26;21.10;96.80
7016;DHT22;3548;48.402;9.990;2022-07-04T00:46:52;21.00;96.70
7016;DHT22;3548;48.402;9.990;2022-07-04T00:49:18;21.00;96.60
7016;DHT22;3548;48.402;9.990;2022-07-04T00:51:44;20.90;96.80
7016;DHT22;3548;48.402;9.990;2022-07-04T00:54:13;20.90;96.80
7016;DHT22;3548;48.402;9.990;2022-07-04T00:56:40;20.90;96.90
7016;DHT22;3548;48.402;9.990;2022-07-04T00:59:06;20.90;97.10
7016;DHT22;3548;48.402;9.990;2022-07-04T01:01:33;20.90;98.90
7016;DHT22;3548;48.402;9.990;2022-07-04T01:03:59;20.90;99.80
7016;DHT22;3548;48.402;9.990;2022-07-04T01:06:26;20.80;99.90
7016;DHT22;3548;48.402;9.990;2022-07-04T01:08:51;20.80;99.90
7016;DHT22;3548;48.402;9.990;2022-07-04T01:11:17;20.70;99.90
7016;DHT22;3548;48.402;9.990;2022-07-04T01:13:43;20.70;99.90
7016;DHT22;3548;48.402;9.990;2022-07-04T01:16:10;20.60;99.90
7016;DHT22;3548;48.402;9.990;2022-07-04T01:18:36;20.50;99.90
7016;DHT22;3548;48.402;9.990;2022-07-04T01:21:02;20.50;99.90
7016;DHT22;3548;48.402;9.990;2022-07-04T01:23:28;20.50;99.90
7016;DHT22;3548;48.402;9.990;2022-07-04T01:25:54;20.40;99.90
7016;DHT22;3548;48.402;9.990;2022-07-04T01:28:24;20.40;99.90
7016;DHT22;3548;48.402;9.990;2022-07-04T01:30:51;20.40;99.90
7016;DHT22;3548;48.402;9.990;2022-07-04T01:33:17;20.30;99.90
7016;DHT22;3548;48.402;9.990;2022-07-04T01:35:46;20.20;99.90
7016;DHT22;3548;48.402;9.990;2022-07-04T01:38:12;20.30;99.90
7016;DHT22;3548;48.402;9.990;2022-07-04T01:40:38;20.20;99.90
7016;DHT22;3548;48.402;9.990;2022-07-04T01:43:03;20.20;99.90
7016;DHT22;3548;48.402;9.990;2022-07-04T01:45:29;20.20;99.90
7016;DHT22;3548;48.402;9.990;2022-07-04T01:47:55;20.10;99.90
7016;DHT22;3548;48.402;9.990;2022-07-04T01:50:20;20.00;99.90
7016;DHT22;3548;48.402;9.990;2022-07-04T01:52:46;20.00;99.90
7016;DHT22;3548;48.402;9.990;2022-07-04T01:55:13;19.90;99.90
7016;DHT22;3548;48.402;9.990;2022-07-04T01:57:39;19.90;99.90
7016;DHT22;3548;48.402;9.990;2022-07-04T02:00:09;19.70;99.90
7016;DHT22;3548;48.402;9.990;2022-07-04T02:02:55;19.80;99.90
7016;DHT22;3548;48.402;9.990;2022-07-04T02:05:20;19.70;99.90
7016;DHT22;3548;48.402;9.990;2022-07-04T02:07:48;19.70;99.90
7016;DHT22;3548;48.402;9.990;2022-07-04T02:10:14;19.70;99.90
7016;DHT22;3548;48.402;9.990;2022-07-04T02:12:39;19.70;99.90
7016;DHT22;3548;48.402;9.990;2022-07-04T02:15:24;19.70;99.90
7016;DHT22;3548;48.402;9.990;2022-07-04T02:17:49;19.80;99.90
7016;DHT22;3548;48.402;9.990;2022-07-04T02:20:15;19.80;99.90
7016;DHT22;3548;48.402;9.990;2022-07-04T02:22:40;19.80;99.90
7016;DHT22;3548;48.402;9.990;2022-07-04T02:25:07;19.80;99.90
7016;DHT22;3548;48.402;9.990;2022-07-04T02:27:33;19.90;99.90
7016;DHT22;3548;48.402;9.990;2022-07-04T02:29:58;19.80;99.90
7016;DHT22;3548;48.402;9.990;2022-07-04T02:32:24;19.80;99.90
7016;DHT22;3548;48.402;9.990;2022-07-04T02:34:50;19.70;99.90
7016;DHT22;3548;48.402;9.990;2022-07-04T02:37:17;19.70;99.90
7016;DHT22;3548;48.402;9.990;2022-07-04T02:39:43;19.70;99.90
7016;DHT22;3548;48.402;9.990;2022-07-04T02:42:08;19.70;99.90
7016;DHT22;3548;48.402;9.990;2022-07-04T02:44:34;19.70;99.90
7016;DHT22;3548;48.402;9.990;2022-07-04T02:46:59;19.80;99.90
7016;DHT22;3548;48.402;9.990;2022-07-04T02:49:26;19.80;99.90
7016;DHT22;3548;48.402;9.990;2022-07-04T02:51:52;19.80;99.90
7016;DHT22;3548;48.402;9.990;2022-07-04T02:54:17;19.80;99.90
7016;DHT22;3548;48.402;9.990;2022-07-04T02:56:43;19.80;99.90
7016;DHT22;3548;48.402;9.990;2022-07-04T02:59:08;19.80;99.90
7016;DHT22;3548;48.402;9.990;2022-07-04T03:01:34;19.80;99.90
7016;DHT22;3548;48.402;9.990;2022-07-04T03:03:59;19.70;99.90
7016;DHT22;3548;48.402;9.990;2022-07-04T03:06:26;19.80;99.90
7016;DHT22;3548;48.402;9.990;2022-07-04T03:08:51;19.70;99.90
7016;DHT22;3548;48.402;9.990;2022-07-04T03:11:18;19.70;99.90
7016;DHT22;3548;48.402;9.990;2022-07-04T03:13:44;19.60;99.90
7016;DHT22;3548;48.402;9.990;2022-07-04T03:16:10;19.40;99.90
7016;DHT22;3548;48.402;9.990;2022-07-04T03:18:36;19.30;99.90
7016;DHT22;3548;48.402;9.990;2022-07-04T03:21:01;19.10;99.90
7016;DHT22;3548;48.402;9.990;2022-07-04T03:23:30;18.90;99.90
7016;DHT22;3548;48.402;9.990;2022-07-04T03:25:55;18.70;99.90
7016;DHT22;3548;48.402;9.990;2022-07-04T03:28:21;18.60;99.90
7016;DHT22;3548;48.402;9.990;2022-07-04T03:30:46;18.50;99.90
7016;DHT22;3548;48.402;9.990;2022-07-04T03:33:12;18.50;99.90
7016;DHT22;3548;48.402;9.990;2022-07-04T03:35:38;18.60;99.90
7016;DHT22;3548;48.402;9.990;2022-07-04T03:38:03;18.60;99.90
7016;DHT22;3548;48.402;9.990;2022-07-04T03:40:29;18.60;99.90
7016;DHT22;3548;48.402;9.990;2022-07-04T03:42:57;18.50;99.90
7016;DHT22;3548;48.402;9.990;2022-07-04T03:45:23;18.50;99.90
7016;DHT22;3548;48.402;9.990;2022-07-04T03:47:49;18.40;99.90
7016;DHT22;3548;48.402;9.990;2022-07-04T03:50:15;18.40;99.90
7016;DHT22;3548;48.402;9.990;2022-07-04T03:52:40;18.40;99.90
7016;DHT22;3548;48.402;9.990;2022-07-04T03:55:06;18.40;99.90
7016;DHT22;3548;48.402;9.990;2022-07-04T03:57:32;18.40;99.90
7016;DHT22;3548;48.402;9.990;2022-07-04T03:59:58;18.40;99.90
7016;DHT22;3548;48.402;9.990;2022-07-04T04:02:23;18.30;99.90
7016;DHT22;3548;48.402;9.990;2022-07-04T04:04:49;18.40;99.90
7016;DHT22;3548;48.402;9.990;2022-07-04T04:07:33;18.40;99.90
7016;DHT22;3548;48.402;9.990;2022-07-04T04:09:58;18.40;99.90
7016;DHT22;3548;48.402;9.990;2022-07-04T04:12:24;18.30;99.90
7016;DHT22;3548;48.402;9.990;2022-07-04T04:14:50;18.30;99.90
7016;DHT22;3548;48.402;9.990;2022-07-04T04:17:15;18.30;99.90
7016;DHT22;3548;48.402;9.990;2022-07-04T04:19:41;18.30;99.90
7016;DHT22;3548;48.402;9.990;2022-07-04T04:22:06;18.30;99.90
7016;DHT22;3548;48.402;9.990;2022-07-04T04:24:32;18.30;99.90
7016;DHT22;3548;48.402;9.990;2022-07-04T04:26:57;18.30;99.90
7016;DHT22;3548;48.402;9.990;2022-07-04T04:29:23;18.20;99.90
7016;DHT22;3548;48.402;9.990;2022-07-04T04:31:48;18.30;99.90
7016;DHT22;3548;48.402;9.990;2022-07-04T04:34:14;18.30;99.90
7016;DHT22;3548;48.402;9.990;2022-07-04T04:36:39;18.30;99.90
7016;DHT22;3548;48.402;9.990;2022-07-04T04:39:05;18.40;99.90
7016;DHT22;3548;48.402;9.990;2022-07-04T04:41:31;18.50;99.90
7016;DHT22;3548;48.402;9.990;2022-07-04T04:43:56;18.50;99.90
7016;DHT22;3548;48.402;9.990;2022-07-04T04:46:22;18.50;99.90
7016;DHT22;3548;48.402;9.990;2022-07-04T04:48:47;18.50;99.90
7016;DHT22;3548;48.402;9.990;2022-07-04T04:51:13;18.50;99.90
7016;DHT22;3548;48.402;9.990;2022-07-04T04:53:38;18.50;99.90
7016;DHT22;3548;48.402;9.990;2022-07-04T04:56:04;18.50;99.90
7016;DHT22;3548;48.402;9.990;2022-07-04T04:58:30;18.60;99.90
7016;DHT22;3548;48.402;9.990;2022-07-04T05:00:55;18.60;99.90
7016;DHT22;3548;48.402;9.990;2022-07-04T05:03:21;18.70;99.90
7016;DHT22;3548;48.402;9.990;2022-07-04T05:05:46;18.80;99.90
7016;DHT22;3548;48.402;9.990;2022-07-04T05:08:13;18.80;99.90
7016;DHT22;3548;48.402;9.990;2022-07-04T05:10:39;18.90;99.90
7016;DHT22;3548;48.402;9.990;2022-07-04T05:13:05;19.00;99.90
7016;DHT22;3548;48.402;9.990;2022-07-04T05:15:31;19.00;99.90
7016;DHT22;3548;48.402;9.990;2022-07-04T05:17:56;19.10;99.90
7016;DHT22;3548;48.402;9.990;2022-07-04T05:20:22;19.10;99.90
7016;DHT22;3548;48.402;9.990;2022-07-04T05:22:48;19.10;99.90
7016;DHT22;3548;48.402;9.990;2022-07-04T05:25:13;19.20;99.90
7016;DHT22;3548;48.402;9.990;2022-07-04T05:27:39;19.20;99.90
7016;DHT22;3548;48.402;9.990;2022-07-04T05:30:06;19.30;99.90
7016;DHT22;3548;48.402;9.990;2022-07-04T05:32:32;19.30;99.90
7016;DHT22;3548;48.402;9.990;2022-07-04T05:34:58;19.30;99.90
7016;DHT22;3548;48.402;9.990;2022-07-04T05:37:24;19.30;99.90
7016;DHT22;3548;48.402;9.990;2022-07-04T05:39:49;19.40;99.90
7016;DHT22;3548;48.402;9.990;2022-07-04T05:42:15;19.40;99.90
7016;DHT22;3548;48.402;9.990;2022-07-04T05:44:41;19.50;99.90
7016;DHT22;3548;48.402;9.990;2022-07-04T05:47:07;19.50;99.90
7016;DHT22;3548;48.402;9.990;2022-07-04T05:49:33;19.50;99.90
7016;DHT22;3548;48.402;9.990;2022-07-04T05:51:58;19.60;99.90
7016;DHT22;3548;48.402;9.990;2022-07-04T05:54:24;19.70;99.90
7016;DHT22;3548;48.402;9.990;2022-07-04T05:56:49;19.80;99.90
7016;DHT22;3548;48.402;9.990;2022-07-04T05:59:15;19.90;99.90
7016;DHT22;3548;48.402;9.990;2022-07-04T06:01:41;19.90;99.90
7016;DHT22;3548;48.402;9.990;2022-07-04T06:04:06;19.90;99.90
7016;DHT22;3548;48.402;9.990;2022-07-04T06:06:32;20.00;99.90
7016;DHT22;3548;48.402;9.990;2022-07-04T06:08:58;20.00;99.90
7016;DHT22;3548;48.402;9.990;2022-07-04T06:11:24;20.00;99.90
7016;DHT22;3548;48.402;9.990;2022-07-04T06:13:50;20.00;99.90
7016;DHT22;3548;48.402;9.990;2022-07-04T06:16:16;20.00;99.90
7016;DHT22;3548;48.402;9.990;2022-07-04T06:18:42;20.10;99.90
7016;DHT22;3548;48.402;9.990;2022-07-04T06:21:08;20.10;99.90
7016;DHT22;3548;48.402;9.990;2022-07-04T06:23:34;20.30;99.90
7016;DHT22;3548;48.402;9.990;2022-07-04T06:26:00;20.40;99.90
7016;DHT22;3548;48.402;9.990;2022-07-04T06:28:26;20.60;99.90
7016;DHT22;3548;48.402;9.990;2022-07-04T06:30:52;20.70;99.90
7016;DHT22;3548;48.402;9.990;2022-07-04T06:33:17;20.90;99.90
7016;DHT22;3548;48.402;9.990;2022-07-04T06:35:44;21.00;99.90
7016;DHT22;3548;48.402;9.990;2022-07-04T06:38:25;21.10;99.90
7016;DHT22;3548;48.402;9.990;2022-07-04T06:40:54;21.20;99.90
7016;DHT22;3548;48.402;9.990;2022-07-04T06:43:19;21.20;99.90
7016;DHT22;3548;48.402;9.990;2022-07-04T06:45:45;21.10;99.90
7016;DHT22;3548;48.402;9.990;2022-07-04T06:48:10;21.10;99.90
7016;DHT22;3548;48.402;9.990;2022-07-04T06:50:37;21.20;99.90
7016;DHT22;3548;48.402;9.990;2022-07-04T06:53:04;21.30;99.90
7016;DHT22;3548;48.402;9.990;2022-07-04T06:55:30;21.40;99.90
7016;DHT22;3548;48.402;9.990;2022-07-04T06:57:56;21.40;99.90
7016;DHT22;3548;48.402;9.990;2022-07-04T07:00:21;21.50;99.90
7016;DHT22;3548;48.402;9.990;2022-07-04T07:02:47;21.60;99.90
7016;DHT22;3548;48.402;9.990;2022-07-04T07:05:12;21.70;99.90
7016;DHT22;3548;48.402;9.990;2022-07-04T07:07:38;21.80;99.90
7016;DHT22;3548;48.402;9.990;2022-07-04T07:10:04;21.90;99.90
7016;DHT22;3548;48.402;9.990;2022-07-04T07:12:32;22.10;99.90
7016;DHT22;3548;48.402;9.990;2022-07-04T07:14:57;22.20;99.90
7016;DHT22;3548;48.402;9.990;2022-07-04T07:17:23;22.30;99.90
7016;DHT22;3548;48.402;9.990;2022-07-04T07:19:49;22.50;99.90
7016;DHT22;3548;48.402;9.990;2022-07-04T07:22:15;22.50;99.90
7016;DHT22;3548;48.402;9.990;2022-07-04T07:24:40;22.50;99.90
7016;DHT22;3548;48.402;9.990;2022-07-04T07:27:06;22.60;99.90
7016;DHT22;3548;48.402;9.990;2022-07-04T07:29:32;22.70;99.90
7016;DHT22;3548;48.402;9.990;2022-07-04T07:31:58;22.80;99.90
7016;DHT22;3548;48.402;9.990;2022-07-04T07:34:24;22.90;99.90
7016;DHT22;3548;48.402;9.990;2022-07-04T07:36:49;23.00;99.90
7016;DHT22;3548;48.402;9.990;2022-07-04T07:39:15;23.10;99.50
7016;DHT22;3548;48.402;9.990;2022-07-04T07:41:41;23.10;99.70
7016;DHT22;3548;48.402;9.990;2022-07-04T07:44:07;23.20;99.50
7016;DHT22;3548;48.402;9.990;2022-07-04T07:46:32;23.30;99.40
7016;DHT22;3548;48.402;9.990;2022-07-04T07:48:58;23.40;99.50
7016;DHT22;3548;48.402;9.990;2022-07-04T07:51:24;23.50;99.50
7016;DHT22;3548;48.402;9.990;2022-07-04T07:53:49;23.60;99.90
7016;DHT22;3548;48.402;9.990;2022-07-04T07:56:15;23.80;99.90
7016;DHT22;3548;48.402;9.990;2022-07-04T07:58:40;23.90;99.70
7016;DHT22;3548;48.402;9.990;2022-07-04T08:01:06;24.10;99.10
7016;DHT22;3548;48.402;9.990;2022-07-04T08:03:31;24.20;98.90
7016;DHT22;3548;48.402;9.990;2022-07-04T08:06:16;24.30;98.80
7016;DHT22;3548;48.402;9.990;2022-07-04T08:08:42;24.30;98.50
7016;DHT22;3548;48.402;9.990;2022-07-04T08:11:09;24.40;98.30
7016;DHT22;3548;48.402;9.990;2022-07-04T08:13:35;24.50;97.90
7016;DHT22;3548;48.402;9.990;2022-07-04T08:16:01;24.50;97.50
7016;DHT22;3548;48.402;9.990;2022-07-04T08:18:26;24.50;97.30
7016;DHT22;3548;48.402;9.990;2022-07-04T08:20:52;24.60;97.10
7016;DHT22;3548;48.402;9.990;2022-07-04T08:23:18;24.80;97.00
7016;DHT22;3548;48.402;9.990;2022-07-04T08:25:43;24.80;96.90
7016;DHT22;3548;48.402;9.990;2022-07-04T08:28:09;25.00;96.40
7016;DHT22;3548;48.402;9.990;2022-07-04T08:30:35;25.00;96.40
7016;DHT22;3548;48.402;9.990;2022-07-04T08:33:01;25.20;96.40
7016;DHT22;3548;48.402;9.990;2022-07-04T08:35:27;25.30;95.40
7016;DHT22;3548;48.402;9.990;2022-07-04T08:37:52;25.30;95.60
7016;DHT22;3548;48.402;9.990;2022-07-04T08:40:25;25.40;95.50
7016;DHT22;3548;48.402;9.990;2022-07-04T08:42:51;25.40;95.10
7016;DHT22;3548;48.402;9.990;2022-07-04T08:45:18;25.50;94.90
7016;DHT22;3548;48.402;9.990;2022-07-04T08:47:50;25.50;94.60
7016;DHT22;3548;48.402;9.990;2022-07-04T08:50:30;25.60;94.80
7016;DHT22;3548;48.402;9.990;2022-07-04T08:53:00;25.50;94.90
7016;DHT22;3548;48.402;9.990;2022-07-04T08:55:28;25.60;94.50
7016;DHT22;3548;48.402;9.990;2022-07-04T08:58:12;25.70;93.70
7016;DHT22;3548;48.402;9.990;2022-07-04T09:00:58;25.70;92.50
7016;DHT22;3548;48.402;9.990;2022-07-04T09:03:25;25.50;92.40
7016;DHT22;3548;48.402;9.990;2022-07-04T09:05:51;25.40;92.30
7016;DHT22;3548;48.402;9.990;2022-07-04T09:08:17;25.30;92.20
7016;DHT22;3548;48.402;9.990;2022-07-04T09:10:43;25.30;92.50
7016;DHT22;3548;48.402;9.990;2022-07-04T09:13:10;25.50;92.50
7016;DHT22;3548;48.402;9.990;2022-07-04T09:15:36;25.70;92.10
7016;DHT22;3548;48.402;9.990;2022-07-04T09:18:03;26.00;91.00
7016;DHT22;3548;48.402;9.990;2022-07-04T09:20:31;26.30;90.60
7016;DHT22;3548;48.402;9.990;2022-07-04T09:22:57;26.50;90.60
7016;DHT22;3548;48.402;9.990;2022-07-04T09:25:24;26.50;90.90
7016;DHT22;3548;48.402;9.990;2022-07-04T09:27:52;26.50;90.90
7016;DHT22;3548;48.402;9.990;2022-07-04T09:30:20;26.70;90.90
7016;DHT22;3548;48.402;9.990;2022-07-04T09:32:48;27.10;90.30
7016;DHT22;3548;48.402;9.990;2022-07-04T09:35:20;27.30;89.00
7016;DHT22;3548;48.402;9.990;2022-07-04T09:37:51;27.60;87.20
7016;DHT22;3548;48.402;9.990;2022-07-04T09:40:34;27.80;85.20
7016;DHT22;3548;48.402;9.990;2022-07-04T09:43:20;27.50;84.70
7016;DHT22;3548;48.402;9.990;2022-07-04T09:45:54;27.10;85.50
7016;DHT22;3548;48.402;9.990;2022-07-04T09:48:20;26.70;86.50
7016;DHT22;3548;48.402;9.990;2022-07-04T09:50:45;26.40;88.40
7016;DHT22;3548;48.402;9.990;2022-07-04T09:53:11;26.00;89.00
7016;DHT22;3548;48.402;9.990;2022-07-04T09:55:38;25.80;90.00
7016;DHT22;3548;48.402;9.990;2022-07-04T09:58:06;25.70;90.20
7016;DHT22;3548;48.402;9.990;2022-07-04T10:00:37;25.80;90.60
7016;DHT22;3548;48.402;9.990;2022-07-04T10:03:19;25.80;90.60
7016;DHT22;3548;48.402;9.990;2022-07-04T10:05:47;25.90;90.30
7016;DHT22;3548;48.402;9.990;2022-07-04T10:08:13;25.90;90.40
7016;DHT22;3548;48.402;9.990;2022-07-04T10:10:39;26.00;90.40
7016;DHT22;3548;48.402;9.990;2022-07-04T10:13:10;26.00;90.40
7016;DHT22;3548;48.402;9.990;2022-07-04T10:15:38;25.90;90.40
7016;DHT22;3548;48.402;9.990;2022-07-04T10:18:06;25.80;90.10
7016;DHT22;3548;48.402;9.990;2022-07-04T10:20:32;25.70;90.30
7016;DHT22;3548;48.402;9.990;2022-07-04T10:22:59;25.80;90.70
7016;DHT22;3548;48.402;9.990;2022-07-04T10:25:25;26.00;90.30
7016;DHT22;3548;48.402;9.990;2022-07-04T10:27:51;26.00;90.00
7016;DHT22;3548;48.402;9.990;2022-07-04T10:30:32;26.00;90.10
7016;DHT22;3548;48.402;9.990;2022-07-04T10:33:00;26.10;88.80
7016;DHT22;3548;48.402;9.990;2022-07-04T10:35:53;26.10;89.30
7016;DHT22;3548;48.402;9.990;2022-07-04T10:38:23;26.10;89.00
7016;DHT22;3548;48.402;9.990;2022-07-04T10:40:54;26.10;88.50
7016;DHT22;3548;48.402;9.990;2022-07-04T10:46:22;25.70;90.00
7016;DHT22;3548;48.402;9.990;2022-07-04T10:56:53;26.50;89.80
7016;DHT22;3548;48.402;9.990;2022-07-04T11:01:53;27.20;88.00
7016;DHT22;3548;48.402;9.990;2022-07-04T11:04:51;27.30;87.20
7016;DHT22;3548;48.402;9.990;2022-07-04T11:13:06;27.40;85.40
7016;DHT22;3548;48.402;9.990;2022-07-04T11:20:31;27.20;84.30
7016;DHT22;3548;48.402;9.990;2022-07-04T11:25:41;27.20;84.40
7016;DHT22;3548;48.402;9.990;2022-07-04T11:28:25;27.20;83.10
7016;DHT22;3548;48.402;9.990;2022-07-04T11:30:58;27.20;82.50
7016;DHT22;3548;48.402;9.990;2022-07-04T11:33:28;27.20;82.80
7016;DHT22;3548;48.402;9.990;2022-07-04T11:36:06;27.30;84.70
7016;DHT22;3548;48.402;9.990;2022-07-04T11:38:58;27.40;83.80
7016;DHT22;3548;48.402;9.990;2022-07-04T11:41:26;27.50;82.10
7016;DHT22;3548;48.402;9.990;2022-07-04T11:44:15;27.50;81.90
7016;DHT22;3548;48.402;9.990;2022-07-04T11:49:40;27.60;81.10
7016;DHT22;3548;48.402;9.990;2022-07-04T11:52:06;27.70;81.10
7016;DHT22;3548;48.402;9.990;2022-07-04T11:54:31;27.70;81.10
7016;DHT22;3548;48.402;9.990;2022-07-04T11:57:18;27.70;80.60
7016;DHT22;3548;48.402;9.990;2022-07-04T11:59:54;27.40;81.50
7016;DHT22;3548;48.402;9.990;2022-07-04T12:02:20;27.30;82.40
7016;DHT22;3548;48.402;9.990;2022-07-04T12:04:46;27.10;82.50
7016;DHT22;3548;48.402;9.990;2022-07-04T12:07:14;27.10;83.50
7016;DHT22;3548;48.402;9.990;2022-07-04T12:09:40;27.10;82.80
7016;DHT22;3548;48.402;9.990;2022-07-04T12:12:07;27.10;82.60
7016;DHT22;3548;48.402;9.990;2022-07-04T12:14:32;27.20;82.30
7016;DHT22;3548;48.402;9.990;2022-07-04T12:19:58;27.50;80.80
7016;DHT22;3548;48.402;9.990;2022-07-04T12:24:51;27.80;80.00
7016;DHT22;3548;48.402;9.990;2022-07-04T12:27:18;27.60;80.20
7016;DHT22;3548;48.402;9.990;2022-07-04T12:29:48;27.40;80.20
7016;DHT22;3548;48.402;9.990;2022-07-04T12:32:14;27.20;80.70
7016;DHT22;3548;48.402;9.990;2022-07-04T12:34:40;27.10;81.50
7016;DHT22;3548;48.402;9.990;2022-07-04T12:37:08;27.00;81.80
7016;DHT22;3548;48.402;9.990;2022-07-04T12:39:35;26.90;82.00
7016;DHT22;3548;48.402;9.990;2022-07-04T12:42:14;26.90;82.20
7016;DHT22;3548;48.402;9.990;2022-07-04T12:44:40;26.90;81.70
7016;DHT22;3548;48.402;9.990;2022-07-04T12:47:08;26.90;82.80
7016;DHT22;3548;48.402;9.990;2022-07-04T12:49:34;26.80;83.10
7016;DHT22;3548;48.402;9.990;2022-07-04T12:52:09;26.80;82.10
7016;DHT22;3548;48.402;9.990;2022-07-04T12:54:35;26.80;82.20
7016;DHT22;3548;48.402;9.990;2022-07-04T12:57:09;26.90;82.40
7016;DHT22;3548;48.402;9.990;2022-07-04T12:59:35;27.10;81.40
7016;DHT22;3548;48.402;9.990;2022-07-04T13:02:01;27.30;81.00
7016;DHT22;3548;48.402;9.990;2022-07-04T13:04:27;27.40;80.70
7016;DHT22;3548;48.402;9.990;2022-07-04T13:06:52;27.30;79.00
7016;DHT22;3548;48.402;9.990;2022-07-04T13:09:18;27.20;79.30
7016;DHT22;3548;48.402;9.990;2022-07-04T13:11:43;27.30;78.80
7016;DHT22;3548;48.402;9.990;2022-07-04T13:14:28;27.40;79.00
7016;DHT22;3548;48.402;9.990;2022-07-04T13:16:53;27.80;78.50
7016;DHT22;3548;48.402;9.990;2022-07-04T13:19:19;28.10;78.20
7016;DHT22;3548;48.402;9.990;2022-07-04T13:21:45;28.40;77.90
7016;DHT22;3548;48.402;9.990;2022-07-04T13:24:13;28.50;76.40
7016;DHT22;3548;48.402;9.990;2022-07-04T13:26:38;28.50;76.60
7016;DHT22;3548;48.402;9.990;2022-07-04T13:29:05;28.50;77.00
7016;DHT22;3548;48.402;9.990;2022-07-04T13:31:31;28.30;76.00
7016;DHT22;3548;48.402;9.990;2022-07-04T13:33:56;28.00;76.50
7016;DHT22;3548;48.402;9.990;2022-07-04T13:36:22;27.60;77.40
7016;DHT22;3548;48.402;9.990;2022-07-04T13:38:48;27.30;79.10
7016;DHT22;3548;48.402;9.990;2022-07-04T13:41:13;27.20;78.70
7016;DHT22;3548;48.402;9.990;2022-07-04T13:43:40;26.90;79.10
7016;DHT22;3548;48.402;9.990;2022-07-04T13:46:06;26.60;79.50
7016;DHT22;3548;48.402;9.990;2022-07-04T13:48:32;26.50;80.40
7016;DHT22;3548;48.402;9.990;2022-07-04T13:50:58;26.30;80.50
7016;DHT22;3548;48.402;9.990;2022-07-04T13:53:23;26.30;81.20
7016;DHT22;3548;48.402;9.990;2022-07-04T13:55:49;26.40;81.70
7016;DHT22;3548;48.402;9.990;2022-07-04T13:58:14;26.40;82.10
7016;DHT22;3548;48.402;9.990;2022-07-04T14:00:40;26.40;82.00
7016;DHT22;3548;48.402;9.990;2022-07-04T14:03:11;26.30;82.00
7016;DHT22;3548;48.402;9.990;2022-07-04T14:05:36;26.10;81.60
7016;DHT22;3548;48.402;9.990;2022-07-04T14:08:02;26.00;81.40
7016;DHT22;3548;48.402;9.990;2022-07-04T14:10:28;25.90;81.60
7016;DHT22;3548;48.402;9.990;2022-07-04T14:12:53;25.80;82.30
7016;DHT22;3548;48.402;9.990;2022-07-04T14:15:19;25.80;82.00
7016;DHT22;3548;48.402;9.990;2022-07-04T14:17:45;25.70;82.90
7016;DHT22;3548;48.402;9.990;2022-07-04T14:20:12;25.60;83.50
7016;DHT22;3548;48.402;9.990;2022-07-04T14:22:38;25.60;84.00
7016;DHT22;3548;48.402;9.990;2022-07-04T14:25:05;25.50;84.00
7016;DHT22;3548;48.402;9.990;2022-07-04T14:27:30;25.40;83.50
7016;DHT22;3548;48.402;9.990;2022-07-04T14:29:56;25.40;84.60
7016;DHT22;3548;48.402;9.990;2022-07-04T14:32:22;25.30;84.80
7016;DHT22;3548;48.402;9.990;2022-07-04T14:34:47;25.30;84.90
7016;DHT22;3548;48.402;9.990;2022-07-04T14:37:13;25.30;83.90
7016;DHT22;3548;48.402;9.990;2022-07-04T14:39:38;25.30;83.80
7016;DHT22;3548;48.402;9.990;2022-07-04T14:42:04;25.30;84.10
7016;DHT22;3548;48.402;9.990;2022-07-04T14:44:30;25.30;84.30
7016;DHT22;3548;48.402;9.990;2022-07-04T14:46:56;25.30;84.80
7016;DHT22;3548;48.402;9.990;2022-07-04T14:49:21;25.50;84.90
7016;DHT22;3548;48.402;9.990;2022-07-04T14:51:47;25.60;84.60
7016;DHT22;3548;48.402;9.990;2022-07-04T14:54:13;25.70;84.40
7016;DHT22;3548;48.402;9.990;2022-07-04T14:56:38;25.90;84.30
7016;DHT22;3548;48.402;9.990;2022-07-04T14:59:04;26.00;83.50
7016;DHT22;3548;48.402;9.990;2022-07-04T15:01:30;26.00;83.40
7016;DHT22;3548;48.402;9.990;2022-07-04T15:03:56;26.00;83.30
7016;DHT22;3548;48.402;9.990;2022-07-04T15:06:21;26.00;82.40
7016;DHT22;3548;48.402;9.990;2022-07-04T15:08:47;26.00;82.80
7016;DHT22;3548;48.402;9.990;2022-07-04T15:11:13;25.90;82.90
7016;DHT22;3548;48.402;9.990;2022-07-04T15:13:38;25.80;82.70
7016;DHT22;3548;48.402;9.990;2022-07-04T15:16:04;25.80;82.70
7016;DHT22;3548;48.402;9.990;2022-07-04T15:18:30;25.70;82.50
7016;DHT22;3548;48.402;9.990;2022-07-04T15:20:56;25.80;82.50
7016;DHT22;3548;48.402;9.990;2022-07-04T15:23:40;25.80;81.90
7016;DHT22;3548;48.402;9.990;2022-07-04T15:26:24;25.70;82.60
7016;DHT22;3548;48.402;9.990;2022-07-04T15:28:50;25.70;82.30
7016;DHT22;3548;48.402;9.990;2022-07-04T15:31:15;25.80;82.70
7016;DHT22;3548;48.402;9.990;2022-07-04T15:33:41;25.80;82.40
7016;DHT22;3548;48.402;9.990;2022-07-04T15:36:08;25.70;81.70
7016;DHT22;3548;48.402;9.990;2022-07-04T15:38:33;25.70;81.90
7016;DHT22;3548;48.402;9.990;2022-07-04T15:40:59;25.70;82.40
7016;DHT22;3548;48.402;9.990;2022-07-04T15:43:26;25.80;82.60
7016;DHT22;3548;48.402;9.990;2022-07-04T15:45:52;25.70;82.30
7016;DHT22;3548;48.402;9.990;2022-07-04T15:48:18;25.70;82.50
7016;DHT22;3548;48.402;9.990;2022-07-04T15:50:43;25.50;83.00
7016;DHT22;3548;48.402;9.990;2022-07-04T15:53:09;25.50;83.80
7016;DHT22;3548;48.402;9.990;2022-07-04T15:55:34;25.30;83.80
7016;DHT22;3548;48.402;9.990;2022-07-04T15:58:00;25.30;83.20
7016;DHT22;3548;48.402;9.990;2022-07-04T16:00:25;25.10;83.80
7016;DHT22;3548;48.402;9.990;2022-07-04T16:02:52;25.00;84.60
7016;DHT22;3548;48.402;9.990;2022-07-04T16:05:17;24.90;85.30
7016;DHT22;3548;48.402;9.990;2022-07-04T16:07:43;24.80;85.60
7016;DHT22;3548;48.402;9.990;2022-07-04T16:10:08;24.70;85.70
7016;DHT22;3548;48.402;9.990;2022-07-04T16:12:34;24.60;87.90
7016;DHT22;3548;48.402;9.990;2022-07-04T16:15:00;24.50;90.00
7016;DHT22;3548;48.402;9.990;2022-07-04T16:17:25;24.40;90.50
7016;DHT22;3548;48.402;9.990;2022-07-04T16:19:51;24.20;90.90
7016;DHT22;3548;48.402;9.990;2022-07-04T16:22:16;24.10;91.20
7016;DHT22;3548;48.402;9.990;2022-07-04T16:24:42;24.10;91.30
7016;DHT22;3548;48.402;9.990;2022-07-04T16:27:08;24.00;91.50
7016;DHT22;3548;48.402;9.990;2022-07-04T16:29:33;24.00;91.40
7016;DHT22;3548;48.402;9.990;2022-07-04T16:31:59;24.00;91.50
7016;DHT22;3548;48.402;9.990;2022-07-04T16:34:24;24.00;91.30
7016;DHT22;3548;48.402;9.990;2022-07-04T16:36:50;24.10;91.10